TAF

Aerodrome Forecast TAF

TAF description (Slovak)

11.08.2020 - 17:00 UTC

TAF LZIB 111700Z 1118/1218 05009KT 9999 FEW040 SCT090
    TEMPO 1118/1121 VRB20G30KT 3000 TSRA SCT035CB BKN050
    BECMG 1121/1123 VRB02KT CAVOK
    PROB40 TEMPO 1123/1206 2000 BCFG SCT002
    BECMG 1206/1208 13005KT 9999 FEW045 SCT100
    PROB30 TEMPO 1209/1217 VRB10G20KT TSRA FEW040CB BKN055=
TAF LZKZ 111700Z 1118/1218 03009KT CAVOK
    TEMPO 1208/1217 9999 SCT040 SCT090=
TAF LZTT 111700Z 1118/1218 09006KT 9999 SCT050
    PROB40 TEMPO 1118/1121 VRB15G25KT 5000 TSRA SCT035CB BKN055
    TEMPO 1202/1206 VRB02KT 2500 BCFG BKN003
    PROB40 TEMPO 1209/1216 29010G20KT TSRA FEW040CB BKN060=

11.08.2020 - 17:00 UTC

TAF LZSL 111700Z 1118/1203 03005KT CAVOK
    PROB30 TEMPO 1118/1119 4000 TSRA FEW015 SCT035CB
    PROB40 TEMPO 1202/1203 2500 BCFG SCT003=
TAF LZPP 111700Z 1118/1203 02006KT CAVOK
    PROB40 TEMPO 1118/1119 33010G25KT 4000 TSRA FEW017 SCT040CB=
TAF LZZI 111700Z 1118/1203 31005KT 9999 FEW040
    TEMPO 1118/1119 4000 TSRA FEW010 SCT030CB BKN050
    TEMPO 1202/1203 1200 BCFG BKN003=

11.08.2020 - 11:00 UTC

TAF AMD LZIB 111618Z 1116/1212 05006KT 9999 FEW040 SCT090
    TEMPO 1116/1120 VRB15G30KT 3000 TSRA SCT035CB BKN050
    BECMG 1120/1122 VRB02KT CAVOK
    PROB40 TEMPO 1201/1206 2000 BCFG SCT002
    BECMG 1206/1208 13005KT 9999 FEW045 SCT100
    PROB30 TEMPO 1209/1212 VRB10G20KT TSRA FEW040CB BKN055=

11.08.2020 - 14:00 UTC

TAF AMD LZSL 111522Z 1115/1200 03005KT 9999 FEW040
    PROB40 TEMPO 1115/1119 4000 TSRA FEW015 SCT035CB BKN050=
TAF AMD LZPP 111522Z 1115/1200 02006KT 9999 FEW045
    TEMPO 1115/1119 33010G25KT 4000 TSRA FEW017 SCT040CB BKN050=
TAF AMD LZZI 111522Z 1115/1200 31005KT 9999 FEW040
    TEMPO 1115/1119 4000 TSRA FEW010 SCT030CB BKN050=

11.08.2020 - 11:00 UTC

TAF AMD LZPP 111437Z 1114/1121 02007KT 9999 FEW045
    PROB40 TEMPO 1114/1116 VRB15G30KT 4000 TSRA FEW017 SCT040CB
    BKN050=

11.08.2020 - 14:00 UTC

TAF LZSL 111400Z 1115/1200 03005KT 9999 FEW040
    TEMPO 1115/1117 VRB16G26KT 4000 TSRA FEW015 SCT035CB BKN050=
TAF LZPP 111400Z 1115/1200 02006KT 9999 FEW045
    PROB40 TEMPO 1115/1116 4000 TSRA FEW017 SCT040CB BKN050=
TAF LZZI 111400Z 1115/1200 31005KT 9999 FEW040
    TEMPO 1115/1116 4000 TSRA FEW010 SCT030CB BKN050=

11.08.2020 - 11:00 UTC

TAF LZIB 111100Z 1112/1212 05006KT 9999 FEW040 SCT090
    TEMPO 1112/1118 VRB15G25KT 5000 TSRA SCT035CB BKN050
    BECMG 1118/1120 VRB02KT CAVOK
    PROB40 TEMPO 1202/1206 2000 BCFG SCT002
    BECMG 1206/1208 13005KT 9999 FEW045 SCT100
    PROB30 TEMPO 1209/1212 VRB10G20KT TSRA FEW040CB BKN055=
TAF LZKZ 111100Z 1112/1212 03009KT 9999 FEW045 SCT100
    PROB30 TEMPO 1112/1117 34013G25KT TSRA FEW040CB BKN060
    BECMG 1117/1119 CAVOK
    TEMPO 1208/1212 9999 SCT040 SCT090=
TAF LZTT 111100Z 1112/1212 09006KT 9999 SCT050
    TEMPO 1112/1119 VRB15G25KT 5000 TSRA SCT035CB BKN055
    TEMPO 1202/1206 VRB02KT 2500 BCFG BKN003
    PROB40 TEMPO 1209/1212 29010G20KT TSRA FEW040CB BKN060=

11.08.2020 - 11:00 UTC

TAF LZSL 111100Z 1112/1121 19005KT 9999 FEW040
    TEMPO 1112/1116 VRB16G30KT 4000 TSRA FEW015 SCT035CB BKN050=
TAF LZPP 111100Z 1112/1121 02007KT 9999 FEW045
    PROB40 TEMPO 1112/1116 4000 TSRA FEW017 SCT040CB BKN050=
TAF LZZI 111100Z 1112/1121 07005KT 9999 FEW040
    TEMPO 1112/1116 VRB16G30KT 4000 TSRA FEW010 SCT030CB BKN050=

11.08.2020 - 08:00 UTC

TAF LZSL 110800Z 1109/1118 19005KT 9999 FEW040
    TEMPO 1110/1116 VRB16G30KT 4000 TSRA FEW015 SCT035CB BKN050=
TAF LZPP 110800Z 1109/1118 02007KT 9999 FEW045
    TEMPO 1110/1116 VRB16G30KT 4000 TSRA FEW017 SCT040CB BKN050=
TAF LZZI 110800Z 1109/1118 07005KT 9999 FEW040
    TEMPO 1110/1116 VRB16G30KT 4000 TSRA FEW010 SCT030CB BKN050=

11.08.2020 - 05:00 UTC

TAF AMD LZIB 110613Z 1106/1206 07006KT 9999 FEW045 SCT090
    TEMPO 1106/1116 VRB15G25KT 5000 TSRA SCT040CB BKN055
    BECMG 1118/1120 VRB02KT
    PROB40 TEMPO 1202/1206 2500 BCFG SCT008=

11.08.2020 - 05:00 UTC

TAF LZIB 110500Z 1106/1206 07006KT CAVOK
    BECMG 1106/1108 9999 FEW045 SCT090
    PROB40 TEMPO 1106/1109 SHRA FEW050CB SCT060
    TEMPO 1109/1115 14006KT TSRA SCT050CB BKN055
    BECMG 1118/1120 VRB02KT
    PROB40 TEMPO 1202/1206 2500 BCFG SCT008=
TAF LZKZ 110500Z 1106/1206 02008KT CAVOK
    TEMPO 1110/1115 9999 SCT045 SCT090=
TAF LZTT 110500Z 1106/1206 VRB02KT 9999 SCT065
    BECMG 1106/1108 06007KT
    PROB40 TEMPO 1106/1109 SHRA FEW050CB SCT060
    PROB30 TEMPO 1109/1115 TSRA SCT050CB BKN060
    TEMPO 1202/1206 2500 BCFG BKN005=

11.08.2020 - 05:00 UTC

TAF LZSL 110500Z 1106/1115 VRB02KT CAVOK
    BECMG 1108/1110 19005KT 9999 FEW040
    TEMPO 1110/1115 VRB16G30KT 4000 TSRA FEW015 SCT035CB BKN050=
TAF LZPP 110500Z 1106/1115 02007KT CAVOK
    BECMG 1108/1110 9999 FEW045
    TEMPO 1110/1115 VRB16G30KT 4000 TSRA FEW017 SCT040CB BKN050=
TAF LZZI 110500Z 1106/1115 07005KT CAVOK
    BECMG 1108/1110 9999 FEW040
    TEMPO 1110/1115 VRB16G30KT 4000 TSRA FEW010 SCT030CB BKN050=

11.08.2020 - 02:00 UTC

TAF LZSL 110200Z 1103/1112 VRB02KT CAVOK
    PROB30 TEMPO 1103/1106 6000 BCFG FEW002
    BECMG 1107/1109 19005KT 9999 FEW040
    TEMPO 1109/1112 4000 TSRA FEW015 SCT035CB BKN050=
TAF LZZI 110200Z 1103/1112 VRB02KT CAVOK
    PROB30 TEMPO 1103/1106 4000 BCFG FEW002
    BECMG 1107/1109 07005KT 9999 FEW040
    TEMPO 1109/1112 4000 TSRA FEW010 SCT030CB BKN050=

skok na menu ↑


skok na začiatok stránky ↑